Monday, November 24, 2014
17:57 UTC
  |  Log In   |  Register Free
Airport Search:

Enid Woodring Regional Airport
(KWDG)

FAA data valid effective November 13, 2014 - January 08, 2015 (unless otherwise noted).

 
 
 
 
 
 
 
 
 
 
 
 
 
 

Current Aviation Weather for Enid Woodring Regional Airport (KWDG)

The most recent METAR observation for KWDG was updated at: 1723
METAR Summary (Translated METAR)
KWDG
241650Z 29016G23KT 10SM FEW180 11/M02 A2996
KEND
241656Z 30019G26KT 10SM FEW140 10/M03 A2996 RMK AO2A SLP151
(6.6 nm SW from KWDG)
KBKN
241655Z AUTO 29016G21KT 10SM CLR 08/M03 A2993 RMK AO2
(30.6 nm NE from KWDG)
TAF Summary (Translated TAF)
KEND
(6.6 nm SW from KWDG)
2411/2517 26012KT 9999 FEW250 QNH2985INS BECMG 2415/2416 29015G20KT 9999 FEW250 QNH2992INS TEMPO 2416/2421 28020G30KT BECMG 2423/2424 31012KT 9999 FEW250 QNH3001INS TX12/2421Z TNM02/2510Z
  Airport Weather Conditions for KWDG

 Current Weather at WDG
48° F
A Few Clouds
West winds at 17.3 mph
WDG NOAA Radar

Pressure: 29.94 in
Humidity: 46%
Wind: from the West at 17.3 gusting to 26.5 MPH (15 gusting to 23 KT)
Dew Point: 28.4°F
Visibility: 10.00 mi


Airport Weather Forecast for KWDG

Translated METAR and TAF for KWDG
Translated METAR for KWDG (1753 UTC 24 November 2014)
found at http://aviationweather.gov/adds/metars/
 
METAR text: KWDG 241650Z 29016G23KT 10SM FEW180 11/M02 A2996
Conditions at: KWDG (ENID/WOODRING , OK, US) observed 1650 UTC 24 November 2014
Temperature: 11.0°C (52°F)
Dewpoint: -2.0°C (28°F) [RH = 40%]
Pressure (altimeter): 29.96 inches Hg (1014.6 mb)
Winds: from the WNW (290 degrees) at 18 MPH (16 knots; 8.3 m/s)
gusting to 26 MPH (23 knots; 12.0 m/s)
Visibility: 10 or more miles (16+ km)
Ceiling: at least 12,000 feet AGL
Clouds: few clouds at 18000 feet AGL
Weather: no significant weather observed at this time
Translated TAF for KWDG

There is no translated TAF available for this airport

Find All Airport Services Find A Hotel Find A Rental Car Find A Golf Course Find A Restaurant $100 Hamburger



FBO's on the Field
FBO Company Facility Photos Services Transportation Aviation Fuel Prices: Prices include tax
Catering Weather Repair Courtesy Rental Type 100LL JetA JetA+ MOGAS 8087
 
Enid Woodring Regional Airport

This FBO has not yet been rated
FS:Phillips 66
Last Updated: Oct-30
Login to update fuel prices
SS:
Contact Enid Woodring Regional AirportMore FBO Information
 
Add another FBO Facility Photos Catering Weather Repair Courtesy Rental Type 100LL JetA JetA+ MOGAS 8087
Services Transportation Aviation Fuel Prices: Prices include tax


model-print
model-print
model-print
model-print